createdAt,value
2022-11-02T00:01:55.923Z,8.50
2022-11-02T00:04:24.364Z,8.30
2022-11-02T00:06:55.546Z,8.30
2022-11-02T00:09:23.779Z,8.40
2022-11-02T00:11:53.701Z,8.40
2022-11-02T00:14:25.749Z,8.40
2022-11-02T00:16:54.738Z,8.30
2022-11-02T00:19:23.502Z,8.30
2022-11-02T00:21:51.745Z,8.20
2022-11-02T00:24:21.184Z,8.20
2022-11-02T00:26:49.397Z,8.10
2022-11-02T00:29:20.904Z,8.10
2022-11-02T00:31:49.260Z,8.10
2022-11-02T00:34:17.866Z,8.10
2022-11-02T00:39:19.027Z,8.00
2022-11-02T00:41:47.531Z,8.00
2022-11-02T00:44:15.976Z,7.90
2022-11-02T00:46:46.216Z,8.00
2022-11-02T00:49:14.471Z,8.10
2022-11-02T00:51:45.145Z,8.20
2022-11-02T00:54:16.297Z,8.20
2022-11-02T00:56:44.685Z,8.20
2022-11-02T00:59:12.882Z,8.10
2022-11-02T01:01:50.901Z,8.10
2022-11-02T01:04:19.485Z,8.00
2022-11-02T01:06:47.951Z,7.90
2022-11-02T01:09:17.166Z,7.90
2022-11-02T01:11:46.124Z,7.80
2022-11-02T01:14:17.051Z,7.90
2022-11-02T01:19:17.431Z,7.80
2022-11-02T01:21:46.776Z,7.80
2022-11-02T01:24:17.505Z,7.80
2022-11-02T01:26:53.174Z,7.90
2022-11-02T01:29:21.899Z,7.90
2022-11-02T01:34:22.674Z,7.90
2022-11-02T01:36:53.191Z,7.90
2022-11-02T01:39:21.524Z,7.70
2022-11-02T01:41:53.064Z,7.80
2022-11-02T01:44:30.389Z,7.90
2022-11-02T01:47:03.084Z,8.00
2022-11-02T01:49:36.757Z,7.90
2022-11-02T01:52:09.639Z,7.90
2022-11-02T01:54:43.424Z,8.00
2022-11-02T01:57:14.735Z,8.10
2022-11-02T01:59:50.637Z,8.10
2022-11-02T02:02:22.214Z,8.00
2022-11-02T02:05:00.795Z,8.00
2022-11-02T02:07:34.061Z,8.10
2022-11-02T02:10:02.757Z,8.10
2022-11-02T02:12:33.157Z,8.10
2022-11-02T02:15:01.745Z,8.00
2022-11-02T02:17:40.968Z,8.20
2022-11-02T02:20:19.117Z,7.90
2022-11-02T02:23:20.713Z,7.90
2022-11-02T02:26:38.525Z,7.90
2022-11-02T02:29:13.279Z,7.80
2022-11-02T02:31:48.208Z,7.80
2022-11-02T02:34:19.539Z,7.90
2022-11-02T02:36:52.158Z,8.10
2022-11-02T02:39:27.277Z,8.20
2022-11-02T02:42:01.015Z,8.20
2022-11-02T02:44:36.062Z,8.20
2022-11-02T02:47:09.603Z,8.10
2022-11-02T02:49:41.925Z,8.10
2022-11-02T02:52:14.242Z,8.20
2022-11-02T02:54:45.177Z,8.30
2022-11-02T02:57:23.465Z,8.50
2022-11-02T02:59:58.241Z,8.60
2022-11-02T03:02:31.487Z,8.50
2022-11-02T03:04:59.930Z,8.40
2022-11-02T03:07:34.019Z,8.40
2022-11-02T03:10:17.647Z,8.40
2022-11-02T03:12:55.539Z,8.50
2022-11-02T03:15:31.726Z,8.50
2022-11-02T03:18:07.768Z,8.90
2022-11-02T03:20:48.213Z,9.00
2022-11-02T03:23:23.004Z,8.70
2022-11-02T03:26:01.155Z,8.80
2022-11-02T03:28:55.107Z,8.60
2022-11-02T03:31:34.734Z,8.60
2022-11-02T03:34:17.951Z,8.50
2022-11-02T03:36:50.733Z,8.30
2022-11-02T03:39:24.044Z,8.40
2022-11-02T03:41:53.884Z,8.50
2022-11-02T03:44:25.216Z,8.50
2022-11-02T03:47:00.191Z,8.60
2022-11-02T03:49:32.275Z,8.70
2022-11-02T03:52:06.920Z,8.70
2022-11-02T03:54:42.763Z,8.80
2022-11-02T03:57:18.966Z,8.80
2022-11-02T03:59:49.559Z,8.70
2022-11-02T04:02:20.001Z,8.70
2022-11-02T04:04:52.772Z,8.80
2022-11-02T04:07:55.401Z,8.90
2022-11-02T04:10:27.120Z,8.90
2022-11-02T04:13:12.597Z,9.00
2022-11-02T04:15:41.259Z,8.90
2022-11-02T04:18:28.879Z,8.80
2022-11-02T04:20:57.164Z,8.80
2022-11-02T04:23:44.941Z,8.90
2022-11-02T04:26:13.092Z,8.90
2022-11-02T04:28:45.434Z,8.90
2022-11-02T04:31:14.379Z,8.90
2022-11-02T04:33:43.796Z,8.90
2022-11-02T04:36:15.499Z,8.90
2022-11-02T04:38:44.517Z,8.90
2022-11-02T04:41:44.601Z,8.80
2022-11-02T04:44:20.773Z,8.70
2022-11-02T04:46:56.959Z,8.70
2022-11-02T04:49:29.675Z,8.60
2022-11-02T04:51:58.124Z,8.50
2022-11-02T04:54:27.576Z,8.40
2022-11-02T04:56:59.922Z,8.30
2022-11-02T04:59:31.753Z,8.40
2022-11-02T05:02:00.348Z,8.40
2022-11-02T05:04:32.197Z,8.30
2022-11-02T05:07:06.502Z,8.30
2022-11-02T05:09:36.983Z,8.30
2022-11-02T05:12:07.914Z,8.20
2022-11-02T05:14:36.570Z,8.20
2022-11-02T05:17:05.806Z,8.10
2022-11-02T05:19:39.094Z,8.00
2022-11-02T05:22:07.290Z,7.90
2022-11-02T05:24:35.899Z,7.90
2022-11-02T05:27:05.918Z,7.90
2022-11-02T05:29:37.528Z,7.80
2022-11-02T05:32:06.250Z,7.80
2022-11-02T05:34:35.703Z,7.70
2022-11-02T05:37:07.910Z,7.70
2022-11-02T05:39:37.236Z,7.60
2022-11-02T05:42:09.800Z,7.60
2022-11-02T05:44:38.245Z,7.70
2022-11-02T05:47:07.320Z,7.70
2022-11-02T05:49:35.852Z,7.50
2022-11-02T05:52:04.532Z,7.40
2022-11-02T05:54:34.282Z,7.30
2022-11-02T05:57:03.300Z,7.40
2022-11-02T05:59:32.143Z,7.40
2022-11-02T06:02:01.944Z,7.40
2022-11-02T06:04:31.549Z,7.40
2022-11-02T06:07:01.163Z,7.30
2022-11-02T06:09:29.458Z,7.20
2022-11-02T06:11:59.466Z,7.20
2022-11-02T06:14:27.850Z,7.20
2022-11-02T06:16:56.124Z,7.20
2022-11-02T06:19:24.940Z,7.20
2022-11-02T06:21:55.386Z,7.20
2022-11-02T06:24:23.956Z,7.20
2022-11-02T06:26:52.533Z,7.20
2022-11-02T06:29:22.481Z,7.30
2022-11-02T06:31:50.760Z,7.30
2022-11-02T06:34:19.068Z,7.30
2022-11-02T06:36:47.542Z,7.20
2022-11-02T06:39:15.721Z,7.40
2022-11-02T06:41:47.093Z,7.40
2022-11-02T06:44:15.614Z,7.40
2022-11-02T06:46:47.884Z,7.50
2022-11-02T06:51:44.855Z,7.80
2022-11-02T06:54:15.763Z,8.00
2022-11-02T06:56:44.251Z,8.00
2022-11-02T06:59:12.654Z,8.30
2022-11-02T07:01:41.285Z,8.30
2022-11-02T07:04:11.035Z,8.50
2022-11-02T07:06:39.418Z,8.70
2022-11-02T07:09:08.000Z,8.90
2022-11-02T07:14:05.157Z,9.20
2022-11-02T07:16:33.509Z,9.40
2022-11-02T07:19:01.736Z,9.40
2022-11-02T07:21:31.464Z,9.50
2022-11-02T07:24:02.116Z,9.50
2022-11-02T07:36:25.594Z,9.30
2022-11-02T07:38:55.229Z,9.80
2022-11-02T07:41:26.861Z,10.00
2022-11-02T07:43:55.244Z,10.20
2022-11-02T07:48:58.003Z,10.40
2022-11-02T07:51:28.042Z,10.60
2022-11-02T07:53:59.589Z,10.60
2022-11-02T07:56:28.110Z,10.80
2022-11-02T07:58:56.549Z,10.90
2022-11-02T08:01:25.192Z,11.00
2022-11-02T08:03:54.838Z,10.90
2022-11-02T08:06:24.277Z,10.90
2022-11-02T08:08:53.082Z,11.10
2022-11-02T08:11:22.923Z,11.10
2022-11-02T08:16:22.937Z,11.20
2022-11-02T08:18:53.751Z,11.50
2022-11-02T08:21:22.170Z,11.60
2022-11-02T08:23:53.647Z,11.50
2022-11-02T08:26:27.126Z,11.90
2022-11-02T08:28:55.427Z,12.30
2022-11-02T08:31:25.606Z,12.00
2022-11-02T08:33:54.535Z,12.20
2022-11-02T08:36:22.713Z,12.00
2022-11-02T08:38:50.866Z,12.10
2022-11-02T08:41:19.152Z,12.10
2022-11-02T08:43:48.698Z,12.10
2022-11-02T08:46:19.673Z,12.20
2022-11-02T08:48:50.782Z,12.40
2022-11-02T08:51:19.013Z,12.70
2022-11-02T08:53:51.611Z,12.60
2022-11-02T08:56:20.692Z,12.60
2022-11-02T08:58:51.300Z,12.40
2022-11-02T09:01:19.731Z,12.40
2022-11-02T09:03:48.203Z,12.50
2022-11-02T09:06:21.200Z,12.50
2022-11-02T09:08:50.358Z,12.60
2022-11-02T09:13:59.389Z,10.50
2022-11-02T09:18:57.514Z,13.00
2022-11-02T09:24:03.393Z,13.30
2022-11-02T09:26:31.485Z,13.30
2022-11-02T09:29:01.653Z,13.10
2022-11-02T09:31:30.418Z,13.00
2022-11-02T09:33:58.644Z,13.10
2022-11-02T09:36:28.729Z,13.30
2022-11-02T09:39:00.006Z,13.40
2022-11-02T09:41:36.156Z,13.50
2022-11-02T09:44:12.376Z,13.50
2022-11-02T09:46:44.154Z,13.90
2022-11-02T09:49:17.799Z,13.70
2022-11-02T09:51:50.459Z,13.60
2022-11-02T09:54:23.413Z,13.80
2022-11-02T09:56:53.917Z,14.10
2022-11-02T09:59:29.210Z,14.20
2022-11-02T10:02:03.757Z,14.20
2022-11-02T10:04:59.739Z,14.30
2022-11-02T10:07:43.943Z,14.30
2022-11-02T10:10:23.750Z,13.70
2022-11-02T10:13:04.372Z,14.10
2022-11-02T10:15:40.823Z,14.20
2022-11-02T10:18:17.504Z,14.40
2022-11-02T10:20:49.705Z,14.10
2022-11-02T10:23:26.707Z,14.10
2022-11-02T10:25:57.417Z,13.80
2022-11-02T10:28:28.355Z,14.20
2022-11-02T10:30:58.505Z,14.00
2022-11-02T10:33:29.735Z,13.70
2022-11-02T10:36:19.634Z,14.00
2022-11-02T10:38:59.860Z,14.10
2022-11-02T10:41:45.135Z,14.20
2022-11-02T10:44:33.711Z,14.00
2022-11-02T10:47:14.170Z,14.00
2022-11-02T10:50:17.552Z,14.20
2022-11-02T10:52:48.089Z,14.50
2022-11-02T10:55:24.463Z,14.90
2022-11-02T10:57:56.204Z,15.10
2022-11-02T11:00:29.124Z,15.30
2022-11-02T11:03:07.526Z,15.20
2022-11-02T11:05:38.850Z,15.60
2022-11-02T11:08:30.139Z,15.80
2022-11-02T11:11:20.173Z,15.20
2022-11-02T11:19:56.908Z,15.40
2022-11-02T11:22:30.196Z,15.60
2022-11-02T11:25:27.533Z,15.40
2022-11-02T11:27:58.378Z,15.60
2022-11-02T11:30:54.007Z,15.20
2022-11-02T11:33:20.549Z,15.40
2022-11-02T11:35:53.230Z,14.90
2022-11-02T11:38:30.835Z,15.10
2022-11-02T11:41:01.656Z,15.50
2022-11-02T11:43:38.953Z,15.60
2022-11-02T11:46:09.607Z,15.70
2022-11-02T11:48:40.992Z,15.70
2022-11-02T11:51:27.551Z,15.60
2022-11-02T11:54:20.816Z,15.70
2022-11-02T11:56:53.068Z,15.60
2022-11-02T11:59:32.803Z,15.60
2022-11-02T12:02:02.898Z,15.60
2022-11-02T12:04:36.874Z,15.60
2022-11-02T12:07:41.926Z,15.70
2022-11-02T12:10:18.160Z,15.90
2022-11-02T12:12:59.756Z,15.80
2022-11-02T12:15:46.304Z,15.80
2022-11-02T12:18:37.752Z,15.80
2022-11-02T12:21:24.415Z,15.60
2022-11-02T12:24:28.190Z,15.70
2022-11-02T12:27:08.938Z,15.80
2022-11-02T12:32:38.858Z,15.80
2022-11-02T12:35:29.046Z,15.80
2022-11-02T12:38:22.472Z,15.70
2022-11-02T12:41:01.168Z,15.70
2022-11-02T12:43:41.322Z,15.90
2022-11-02T12:46:20.358Z,15.90
2022-11-02T12:49:02.825Z,15.80
2022-11-02T12:51:35.000Z,15.70
2022-11-02T12:54:11.515Z,16.00
2022-11-02T12:56:50.601Z,15.70
2022-11-02T12:59:24.327Z,15.90
2022-11-02T13:01:57.593Z,15.90
2022-11-02T13:04:31.090Z,15.80
2022-11-02T13:07:06.320Z,15.90
2022-11-02T13:09:37.891Z,16.10
2022-11-02T13:12:17.497Z,16.10
2022-11-02T13:14:50.125Z,16.10
2022-11-02T13:17:23.553Z,15.80
2022-11-02T13:19:57.685Z,15.70
2022-11-02T13:25:02.504Z,15.60
2022-11-02T13:27:37.239Z,15.70
2022-11-02T13:30:15.480Z,15.70
2022-11-02T13:32:51.560Z,16.20
2022-11-02T13:35:25.682Z,16.20
2022-11-02T13:37:57.613Z,16.00
2022-11-02T13:43:33.221Z,15.70
2022-11-02T13:46:17.629Z,15.60
2022-11-02T13:48:59.528Z,15.80
2022-11-02T13:51:35.897Z,15.80
2022-11-02T13:54:12.803Z,15.60
2022-11-02T13:56:46.638Z,15.60
2022-11-02T13:59:22.822Z,15.50
2022-11-02T14:01:54.734Z,15.50
2022-11-02T14:04:23.853Z,15.50
2022-11-02T14:06:56.730Z,15.50
2022-11-02T14:09:36.458Z,15.50
2022-11-02T14:12:41.867Z,15.40
2022-11-02T14:15:42.542Z,15.30
2022-11-02T14:18:16.676Z,15.40
2022-11-02T14:20:46.897Z,15.40
2022-11-02T14:23:48.418Z,15.40
2022-11-02T14:26:34.196Z,15.20
2022-11-02T14:29:26.686Z,15.20
2022-11-02T14:32:05.672Z,15.30
2022-11-02T14:34:53.328Z,15.20
2022-11-02T14:40:20.153Z,15.20
2022-11-02T14:43:26.073Z,15.40
2022-11-02T14:46:17.011Z,15.50
2022-11-02T14:48:54.015Z,15.50
2022-11-02T14:54:04.475Z,15.10
2022-11-02T14:56:51.497Z,15.10
2022-11-02T14:59:25.345Z,15.00
2022-11-02T15:01:58.247Z,15.00
2022-11-02T15:04:33.108Z,14.90
2022-11-02T15:07:04.498Z,14.80
2022-11-02T15:09:52.561Z,14.90
2022-11-02T15:12:45.634Z,14.80
2022-11-02T15:15:31.809Z,14.80
2022-11-02T15:18:14.280Z,14.60
2022-11-02T15:20:46.652Z,14.60
2022-11-02T15:23:30.468Z,14.60
2022-11-02T15:26:01.029Z,14.70
2022-11-02T15:28:33.671Z,14.60
2022-11-02T15:31:05.715Z,14.60
2022-11-02T15:33:38.324Z,14.50
2022-11-02T15:36:17.439Z,14.50
2022-11-02T15:38:52.222Z,14.40
2022-11-02T15:41:28.107Z,14.40
2022-11-02T15:44:26.024Z,13.50
2022-11-02T15:47:07.394Z,14.30
2022-11-02T15:49:56.982Z,14.40
2022-11-02T15:53:01.580Z,14.40
2022-11-02T15:55:39.594Z,14.30
2022-11-02T15:58:22.466Z,14.20
2022-11-02T16:01:06.536Z,14.00
2022-11-02T16:03:35.831Z,13.90
2022-11-02T16:06:05.994Z,13.90
2022-11-02T16:08:37.961Z,13.80
2022-11-02T16:11:13.233Z,13.80
2022-11-02T16:14:03.471Z,13.80
2022-11-02T16:16:35.693Z,13.80
2022-11-02T16:19:04.748Z,13.70
2022-11-02T16:21:33.384Z,13.40
2022-11-02T16:24:03.424Z,13.40
2022-11-02T16:26:32.234Z,13.30
2022-11-02T16:29:01.712Z,13.00
2022-11-02T16:31:32.177Z,12.90
2022-11-02T16:34:02.835Z,12.90
2022-11-02T16:36:32.967Z,13.00
2022-11-02T16:39:05.931Z,13.00
2022-11-02T16:41:35.806Z,12.60
2022-11-02T16:44:11.304Z,12.40
2022-11-02T16:46:48.491Z,12.20
2022-11-02T16:49:19.655Z,12.20
2022-11-02T16:51:53.831Z,12.10
2022-11-02T16:54:39.780Z,11.90
2022-11-02T16:57:15.135Z,11.70
2022-11-02T16:59:53.072Z,11.30
2022-11-02T17:02:31.577Z,11.10
2022-11-02T17:05:06.280Z,11.20
2022-11-02T17:07:40.870Z,11.10
2022-11-02T17:10:20.955Z,10.80
2022-11-02T17:12:50.035Z,10.70
2022-11-02T17:15:21.394Z,10.70
2022-11-02T17:17:50.426Z,11.10
2022-11-02T17:20:24.542Z,10.80
2022-11-02T17:28:02.083Z,10.70
2022-11-02T17:30:48.041Z,10.60
2022-11-02T17:33:25.442Z,10.50
2022-11-02T17:35:56.512Z,10.30
2022-11-02T17:38:28.050Z,10.30
2022-11-02T17:41:00.451Z,10.30
2022-11-02T17:43:28.082Z,10.20
2022-11-02T17:45:57.929Z,10.10
2022-11-02T17:48:29.029Z,10.10
2022-11-02T17:50:59.915Z,10.00
2022-11-02T17:53:29.107Z,10.00
2022-11-02T17:58:27.673Z,9.80
2022-11-02T18:00:55.996Z,10.00
2022-11-02T18:03:29.946Z,10.10
2022-11-02T18:06:00.340Z,10.30
2022-11-02T18:08:29.334Z,10.20
2022-11-02T18:10:59.145Z,10.00
2022-11-02T18:13:30.244Z,9.90
2022-11-02T18:15:58.671Z,9.70
2022-11-02T18:18:26.957Z,9.80
2022-11-02T18:20:55.872Z,9.80
2022-11-02T18:23:24.345Z,9.70
2022-11-02T18:25:56.607Z,9.70
2022-11-02T18:28:28.969Z,9.60
2022-11-02T18:30:57.227Z,9.40
2022-11-02T18:33:25.981Z,9.40
2022-11-02T18:35:54.462Z,9.50
2022-11-02T18:38:24.940Z,9.50
2022-11-02T18:40:53.189Z,9.40
2022-11-02T18:43:21.968Z,9.40
2022-11-02T18:45:51.724Z,9.40
2022-11-02T18:48:20.067Z,9.30
2022-11-02T18:50:48.656Z,9.40
2022-11-02T18:53:16.995Z,9.30
2022-11-02T18:55:45.356Z,9.50
2022-11-02T18:58:14.583Z,9.40
2022-11-02T19:03:13.876Z,9.40
2022-11-02T19:06:01.740Z,9.30
2022-11-02T19:11:17.655Z,9.40
2022-11-02T19:13:50.658Z,9.40
2022-11-02T19:16:21.220Z,9.10
2022-11-02T19:21:20.030Z,9.00
2022-11-02T19:26:20.363Z,9.10
2022-11-02T19:28:53.257Z,9.10
2022-11-02T19:31:22.477Z,9.00
2022-11-02T19:33:53.176Z,8.80
2022-11-02T19:36:26.079Z,8.70
2022-11-02T19:38:54.671Z,8.60
2022-11-02T19:43:57.872Z,8.70
2022-11-02T19:46:27.255Z,8.70
2022-11-02T19:48:58.155Z,8.70
2022-11-02T19:51:32.311Z,8.60
2022-11-02T19:54:04.568Z,8.60
2022-11-02T19:56:36.205Z,8.20
2022-11-02T19:59:09.503Z,8.30
2022-11-02T20:01:42.605Z,8.40
2022-11-02T20:04:15.822Z,8.40
2022-11-02T20:06:47.453Z,8.20
2022-11-02T20:09:20.615Z,8.30
2022-11-02T20:11:52.222Z,8.20
2022-11-02T20:17:04.273Z,7.90
2022-11-02T20:19:43.606Z,8.00
2022-11-02T20:22:13.247Z,8.00
2022-11-02T20:24:41.791Z,8.10
2022-11-02T20:27:09.990Z,7.60
2022-11-02T20:29:41.667Z,8.20
2022-11-02T20:32:12.502Z,8.20
2022-11-02T20:37:13.003Z,8.40
2022-11-02T20:39:41.468Z,8.60
2022-11-02T20:42:11.084Z,8.40
2022-11-02T20:44:39.696Z,8.40
2022-11-02T20:47:08.293Z,8.30
2022-11-02T20:49:49.943Z,8.30
2022-11-02T20:52:22.071Z,8.20
2022-11-02T20:54:52.993Z,7.90
2022-11-02T20:57:24.242Z,7.80
2022-11-02T20:59:56.187Z,7.80
2022-11-02T21:02:28.145Z,7.80
2022-11-02T21:04:58.946Z,7.80
2022-11-02T21:07:31.842Z,7.70
2022-11-02T21:10:01.342Z,7.70
2022-11-02T21:12:47.291Z,7.70
2022-11-02T21:15:16.843Z,7.70
2022-11-02T21:23:10.945Z,7.40
2022-11-02T21:25:40.235Z,10.00
2022-11-02T21:28:09.220Z,7.40
2022-11-02T21:33:06.794Z,7.70
2022-11-02T21:35:38.013Z,7.70
2022-11-02T21:40:40.144Z,7.80
2022-11-02T21:43:09.595Z,7.80
2022-11-02T21:45:38.380Z,8.00
2022-11-02T21:48:09.754Z,8.00
2022-11-02T21:50:40.728Z,8.00
2022-11-02T21:53:11.298Z,7.90
2022-11-02T23:59:09.640Z,8.00
